| time (UTC) | temp F | wind direction | speed MPH | gust MPH | rain 1hr in | rain 24hr in | rain mn in | humidity % | barometer mb |
| 20260507174542 | 64 | 211 | 4.0 | 9.0 | 0.00 | 0.00 | 0.00 | 50 | 1014.0 |
| 20260507173521 | 64 | 220 | 4.0 | 8.0 | 0.00 | 0.00 | 0.00 | 49 | 1013.9 |
| 20260507172518 | 65 | 218 | 4.0 | 13.0 | 0.00 | 0.00 | 0.00 | 48 | 1013.8 |
| 20260507171519 | 65 | 220 | 4.0 | 10.0 | 0.00 | 0.00 | 0.00 | 47 | 1013.7 |
| 20260507170518 | 65 | 215 | 3.0 | 8.0 | 0.00 | 0.00 | 0.00 | 47 | 1013.5 |
| 20260507165518 | 65 | 228 | 3.0 | 8.0 | 0.00 | 0.00 | 0.00 | 46 | 1013.5 |
| 20260507164522 | 65 | 220 | 4.0 | 9.0 | 0.00 | 0.00 | 0.00 | 46 | 1013.4 |
| 20260507163537 | 65 | 231 | 5.0 | 15.0 | 0.00 | 0.00 | 0.00 | 45 | 1013.3 |
| 20260507162540 | 65 | 235 | 5.0 | 13.0 | 0.00 | 0.00 | 0.00 | 47 | 1013.2 |
| 20260507161522 | 65 | 230 | 4.0 | 13.0 | 0.00 | 0.00 | 0.00 | 50 | 1013.1 |
| 20260507160517 | 65 | 248 | 5.0 | 15.0 | 0.00 | 0.00 | 0.00 | 48 | 1013.1 |
| 20260507155540 | 66 | 238 | 3.0 | 7.0 | 0.00 | 0.00 | 0.00 | 50 | 1013.1 |
| 20260507154523 | 67 | 193 | 2.0 | 7.0 | 0.00 | 0.00 | 0.00 | 46 | 1013.1 |
| 20260507153520 | 68 | 319 | 3.0 | 8.0 | 0.00 | 0.00 | 0.00 | 41 | 1013.1 |
| 20260507152520 | 68 | 233 | 3.0 | 7.0 | 0.00 | 0.00 | 0.00 | 40 | 1012.8 |
| 20260507151517 | 69 | 215 | 4.0 | 9.0 | 0.00 | 0.00 | 0.00 | 40 | 1012.8 |
| 20260507150520 | 69 | 209 | 4.0 | 9.0 | 0.00 | 0.00 | 0.00 | 39 | 1012.8 |
| 20260507145520 | 69 | 218 | 4.0 | 8.0 | 0.00 | 0.00 | 0.00 | 40 | 1012.7 |
| 20260507144517 | 70 | 213 | 3.0 | 9.0 | 0.00 | 0.00 | 0.00 | 39 | 1012.7 |
| 20260507143539 | 70 | 205 | 6.0 | 15.0 | 0.00 | 0.00 | 0.00 | 37 | 1012.6 |
| 20260507142522 | 71 | 202 | 5.0 | 13.0 | 0.00 | 0.00 | 0.00 | 36 | 1012.7 |
| 20260507141559 | 71 | 228 | 3.0 | 7.0 | 0.00 | 0.00 | 0.00 | 37 | 1012.5 |
| 20260507140521 | 72 | 259 | 3.0 | 6.0 | 0.00 | 0.00 | 0.00 | 37 | 1012.6 |
| 20260507135521 | 72 | 243 | 4.0 | 10.0 | 0.00 | 0.00 | 0.00 | 37 | 1012.5 |
| 20260507134539 | 72 | 223 | 3.0 | 8.0 | 0.00 | 0.00 | 0.00 | 36 | 1012.6 |
| 20260507133520 | 71 | 199 | 4.0 | 9.0 | 0.00 | 0.00 | 0.00 | 36 | 1012.7 |
| 20260507132523 | 71 | 216 | 2.0 | 4.0 | 0.00 | 0.00 | 0.00 | 36 | 1012.8 |
| 20260507131518 | 71 | 201 | 5.0 | 9.0 | 0.00 | 0.00 | 0.00 | 35 | 1012.9 |
| 20260507130543 | 73 | 238 | 5.0 | 9.0 | 0.00 | 0.00 | 0.00 | 34 | 1012.9 |
| 20260507125521 | 73 | 186 | 5.0 | 11.0 | 0.00 | 0.00 | 0.00 | 34 | 1013.0 |
| 20260507124520 | 72 | 193 | 4.0 | 9.0 | 0.00 | 0.00 | 0.00 | 37 | 1012.9 |
| 20260507123520 | 72 | 233 | 5.0 | 13.0 | 0.00 | 0.00 | 0.00 | 37 | 1013.2 |
| 20260507122518 | 72 | 229 | 4.0 | 7.0 | 0.00 | 0.00 | 0.00 | 36 | 1013.2 |
| 20260507121518 | 71 | 245 | 5.0 | 11.0 | 0.00 | 0.00 | 0.00 | 37 | 1013.2 |
| 20260507120540 | 71 | 239 | 4.0 | 11.0 | 0.00 | 0.00 | 0.00 | 37 | 1013.3 |
| 20260507115518 | 71 | 244 | 5.0 | 15.0 | 0.00 | 0.00 | 0.00 | 37 | 1013.4 |
| 20260507114519 | 70 | 250 | 6.0 | 13.0 | 0.00 | 0.00 | 0.00 | 40 | 1013.4 |
| 20260507113603 | 68 | 206 | 3.0 | 10.0 | 0.00 | 0.00 | 0.00 | 42 | 1013.6 |
| 20260507112517 | 67 | 252 | 7.0 | 11.0 | 0.00 | 0.00 | 0.00 | 43 | 1013.7 |
| 20260507111519 | 66 | 240 | 4.0 | 10.0 | 0.00 | 0.00 | 0.00 | 44 | 1013.9 |
| 20260507110523 | 66 | 248 | 6.0 | 11.0 | 0.00 | 0.00 | 0.00 | 44 | 1013.9 |
| 20260507105518 | 66 | 250 | 6.0 | 14.0 | 0.00 | 0.00 | 0.00 | 45 | 1014.0 |
| 20260507104520 | 66 | 251 | 6.0 | 14.0 | 0.00 | 0.00 | 0.00 | 46 | 1014.0 |
| 20260507103538 | 66 | 235 | 5.0 | 10.0 | 0.00 | 0.00 | 0.00 | 46 | 1014.2 |
| 20260507102520 | 66 | 249 | 5.0 | 13.0 | 0.00 | 0.00 | 0.00 | 46 | 1014.3 |
| 20260507101520 | 65 | 253 | 7.0 | 11.0 | 0.00 | 0.00 | 0.00 | 49 | 1014.3 |
| 20260507100519 | 65 | 240 | 4.0 | 10.0 | 0.00 | 0.00 | 0.00 | 49 | 1014.4 |
| 20260507095518 | 65 | 249 | 7.0 | 15.0 | 0.00 | 0.00 | 0.00 | 49 | 1014.3 |
| 20260507094541 | 65 | 244 | 8.0 | 21.0 | 0.00 | 0.00 | 0.00 | 48 | 1014.2 |
| 20260507093519 | 65 | 243 | 6.0 | 14.0 | 0.00 | 0.00 | 0.00 | 48 | 1014.2 |
| 20260507092519 | 65 | 239 | 5.0 | 13.0 | 0.00 | 0.00 | 0.00 | 47 | 1014.2 |
| 20260507091521 | 65 | 253 | 7.0 | 14.0 | 0.00 | 0.00 | 0.00 | 49 | 1014.1 |
| 20260507090522 | 64 | 244 | 7.0 | 17.0 | 0.00 | 0.00 | 0.00 | 49 | 1014.1 |
| 20260507085541 | 63 | 251 | 8.0 | 16.0 | 0.00 | 0.00 | 0.00 | 51 | 1013.9 |
| 20260507084521 | 62 | 241 | 9.0 | 22.0 | 0.00 | 0.00 | 0.00 | 51 | 1013.9 |
| 20260507083517 | 63 | 256 | 8.0 | 18.0 | 0.00 | 0.00 | 0.00 | 52 | 1013.9 |
| 20260507082521 | 62 | 237 | 9.0 | 18.0 | 0.00 | 0.00 | 0.00 | 51 | 1013.6 |
| 20260507081516 | 62 | 241 | 8.0 | 16.0 | 0.00 | 0.00 | 0.00 | 53 | 1013.6 |
| 20260507080520 | 61 | 243 | 10.0 | 25.0 | 0.00 | 0.00 | 0.00 | 54 | 1013.6 |
| 20260507075520 | 61 | 236 | 10.0 | 23.0 | 0.00 | 0.00 | 0.00 | 54 | 1013.7 |
| 20260507074537 | 61 | 251 | 12.0 | 22.0 | 0.00 | 0.00 | 0.00 | 55 | 1013.6 |
| 20260507073519 | 61 | 248 | 13.0 | 22.0 | 0.00 | 0.00 | 0.00 | 55 | 1013.5 |
| 20260507072522 | 61 | 249 | 11.0 | 23.0 | 0.00 | 0.00 | 0.00 | 55 | 1013.4 |
| 20260507071537 | 60 | 255 | 9.0 | 21.0 | 0.00 | 0.00 | 0.00 | 57 | 1013.1 |
| 20260507070519 | 61 | 246 | 8.0 | 17.0 | 0.00 | 0.00 | 0.00 | 56 | 1013.1 |
| 20260507065520 | 60 | 252 | 12.0 | 21.0 | 0.00 | 0.00 | 0.00 | 57 | 1013.2 |
| 20260507064520 | 60 | 252 | 12.0 | 21.0 | 0.00 | 0.00 | 0.00 | 59 | 1013.2 |
| 20260507063539 | 59 | 254 | 10.0 | 22.0 | 0.00 | 0.00 | 0.00 | 61 | 1013.2 |
| 20260507062520 | 58 | 243 | 7.0 | 16.0 | 0.00 | 0.00 | 0.00 | 63 | 1013.2 |
| 20260507061542 | 57 | 252 | 8.0 | 15.0 | 0.00 | 0.00 | 0.00 | 63 | 1013.1 |
| 20260507060519 | 57 | 250 | 9.0 | 16.0 | 0.00 | 0.00 | 0.00 | 64 | 1013.0 |
| 20260507055539 | 58 | 251 | 8.0 | 15.0 | 0.00 | 0.00 | 0.00 | 64 | 1012.9 |
| 20260507054520 | 58 | 250 | 11.0 | 16.0 | 0.00 | 0.00 | 0.00 | 63 | 1013.0 |
| 20260507053539 | 57 | 247 | 6.0 | 13.0 | 0.00 | 0.00 | 0.00 | 64 | 1012.9 |
| 20260507052519 | 57 | 246 | 4.0 | 8.0 | 0.00 | 0.00 | 0.00 | 65 | 1012.9 |
| 20260507051523 | 57 | 249 | 6.0 | 13.0 | 0.00 | 0.00 | 0.00 | 65 | 1012.7 |
| 20260507050519 | 57 | 240 | 7.0 | 11.0 | 0.00 | 0.00 | 0.00 | 66 | 1012.7 |
| 20260507045520 | 56 | 247 | 5.0 | 11.0 | 0.00 | 0.00 | 0.00 | 66 | 1012.5 |
| 20260507044518 | 56 | 238 | 4.0 | 9.0 | 0.00 | 0.00 | 0.00 | 66 | 1012.5 |
| 20260507043519 | 56 | 248 | 6.0 | 13.0 | 0.00 | 0.00 | 0.00 | 66 | 1012.3 |
| 20260507042520 | 56 | 245 | 5.0 | 10.0 | 0.00 | 0.00 | 0.00 | 66 | 1012.2 |
| 20260507041519 | 56 | 246 | 6.0 | 11.0 | 0.00 | 0.00 | 0.00 | 65 | 1012.0 |
| 20260507040521 | 56 | 246 | 5.0 | 11.0 | 0.00 | 0.00 | 0.00 | 65 | 1012.0 |
| 20260507035521 | 56 | 239 | 5.0 | 9.0 | 0.00 | 0.00 | 0.00 | 65 | 1011.8 |
| 20260507034519 | 57 | 248 | 7.0 | 16.0 | 0.00 | 0.00 | 0.00 | 64 | 1011.8 |
| 20260507033521 | 57 | 252 | 7.0 | 13.0 | 0.00 | 0.00 | 0.00 | 64 | 1011.6 |
| 20260507032521 | 57 | 253 | 10.0 | 16.0 | 0.00 | 0.00 | 0.00 | 64 | 1011.5 |
| 20260507031518 | 57 | 258 | 10.0 | 18.0 | 0.00 | 0.00 | 0.00 | 65 | 1011.5 |
| 20260507030521 | 57 | 249 | 8.0 | 15.0 | 0.00 | 0.00 | 0.00 | 64 | 1011.3 |
| 20260507030022 | 57 | 241 | 8.0 | 17.0 | 0.00 | 0.00 | 0.00 | 64 | 1011.3 |
| 20260507025018 | 58 | 242 | 7.0 | 16.0 | 0.00 | 0.00 | 0.00 | 64 | 1011.2 |
| 20260507024019 | 58 | 230 | 6.0 | 11.0 | 0.00 | 0.00 | 0.00 | 63 | 1011.0 |
| 20260507023020 | 58 | 230 | 7.0 | 22.0 | 0.00 | 0.00 | 0.00 | 63 | 1011.1 |
| 20260507022017 | 58 | 241 | 5.0 | 11.0 | 0.00 | 0.00 | 0.00 | 64 | 1011.0 |
| 20260507021039 | 58 | 232 | 7.0 | 18.0 | 0.00 | 0.00 | 0.00 | 64 | 1010.9 |
| 20260507020106 | 58 | 239 | 6.0 | 17.0 | 0.00 | 0.00 | 0.00 | 65 | 1010.8 |
| 20260507015017 | 58 | 220 | 5.0 | 13.0 | 0.00 | 0.00 | 0.00 | 65 | 1010.8 |
| 20260507014019 | 58 | 231 | 6.0 | 14.0 | 0.00 | 0.00 | 0.00 | 65 | 1010.9 |
| 20260507013023 | 58 | 216 | 4.0 | 9.0 | 0.00 | 0.00 | 0.00 | 66 | 1010.7 |
| 20260507012017 | 58 | 213 | 6.0 | 14.0 | 0.00 | 0.00 | 0.00 | 67 | 1010.5 |
| 20260507011020 | 59 | 222 | 5.0 | 14.0 | 0.00 | 0.00 | 0.00 | 67 | 1010.4 |
| 20260507010017 | 59 | 235 | 5.0 | 13.0 | 0.00 | 0.00 | 0.00 | 67 | 1010.2 |
| 20260507005019 | 59 | 228 | 5.0 | 11.0 | 0.00 | 0.00 | 0.00 | 67 | 1010.3 |
| 20260507004021 | 59 | 241 | 8.0 | 15.0 | 0.00 | 0.00 | 0.00 | 66 | 1010.2 |
| 20260507003022 | 59 | 248 | 7.0 | 15.0 | 0.00 | 0.00 | 0.00 | 66 | 1010.3 |
| 20260507002020 | 60 | 233 | 5.0 | 11.0 | 0.00 | 0.00 | 0.00 | 66 | 1010.2 |
| 20260507001020 | 60 | 223 | 7.0 | 18.0 | 0.00 | 0.00 | 0.00 | 66 | 1009.9 |
| 20260507000016 | 60 | 242 | 7.0 | 17.0 | 0.00 | 0.00 | 0.00 | 67 | 1009.8 |
| 20260506235018 | 60 | 244 | 7.0 | 16.0 | 0.00 | 0.00 | 0.00 | 66 | 1009.6 |
| 20260506234042 | 60 | 237 | 7.0 | 16.0 | 0.00 | 0.00 | 0.00 | 66 | 1009.5 |
| 20260506233016 | 61 | 233 | 6.0 | 13.0 | 0.00 | 0.00 | 0.00 | 66 | 1009.6 |
| 20260506232018 | 61 | 240 | 5.0 | 11.0 | 0.00 | 0.00 | 0.00 | 67 | 1009.5 |
| 20260506231021 | 61 | 242 | 7.0 | 14.0 | 0.00 | 0.00 | 0.00 | 67 | 1009.1 |
| 20260506230017 | 61 | 248 | 11.0 | 24.0 | 0.00 | 0.00 | 0.00 | 67 | 1009.1 |
| 20260506225019 | 62 | 236 | 11.0 | 21.0 | 0.00 | 0.00 | 0.00 | 67 | 1008.7 |
| 20260506224021 | 62 | 245 | 14.0 | 30.0 | 0.00 | 0.00 | 0.00 | 67 | 1008.6 |
| 20260506223018 | 62 | 248 | 9.0 | 18.0 | 0.00 | 0.00 | 0.00 | 64 | 1008.7 |
| 20260506222021 | 62 | 256 | 10.0 | 19.0 | 0.00 | 0.00 | 0.00 | 62 | 1008.3 |
| 20260506221016 | 63 | 248 | 13.0 | 22.0 | 0.00 | 0.00 | 0.00 | 62 | 1007.9 |
| 20260506220020 | 63 | 243 | 9.0 | 23.0 | 0.00 | 0.00 | 0.00 | 60 | 1007.7 |
| 20260506215021 | 64 | 224 | 6.0 | 13.0 | 0.00 | 0.00 | 0.00 | 58 | 1007.4 |
| 20260506214017 | 64 | 223 | 6.0 | 19.0 | 0.00 | 0.00 | 0.00 | 57 | 1007.2 |
| 20260506213020 | 65 | 226 | 5.0 | 11.0 | 0.00 | 0.00 | 0.00 | 55 | 1007.0 |
| 20260506212020 | 66 | 227 | 6.0 | 15.0 | 0.00 | 0.00 | 0.00 | 51 | 1006.8 |
| 20260506211018 | 65 | 228 | 4.0 | 11.0 | 0.00 | 0.00 | 0.00 | 52 | 1006.5 |
| 20260506210019 | 66 | 205 | 3.0 | 7.0 | 0.00 | 0.00 | 0.00 | 52 | 1006.2 |
| 20260506205020 | 66 | 197 | 3.0 | 9.0 | 0.00 | 0.00 | 0.00 | 52 | 1006.1 |
| 20260506204018 | 66 | 194 | 2.0 | 4.0 | 0.00 | 0.00 | 0.00 | 51 | 1005.9 |
| 20260506203019 | 66 | 195 | 1.0 | 3.0 | 0.00 | 0.00 | 0.00 | 51 | 1005.8 |
| 20260506202043 | 66 | 194 | 3.0 | 7.0 | 0.00 | 0.00 | 0.00 | 51 | 1005.6 |
| 20260506201019 | 66 | 200 | 2.0 | 4.0 | 0.00 | 0.00 | 0.00 | 50 | 1005.5 |
| 20260506200019 | 67 | 197 | 2.0 | 4.0 | 0.00 | 0.00 | 0.00 | 51 | 1005.4 |
| 20260506195016 | 67 | 171 | 1.0 | 6.0 | 0.00 | 0.00 | 0.00 | 50 | 1005.3 |
| 20260506194018 | 68 | 179 | 2.0 | 4.0 | 0.00 | 0.00 | 0.00 | 49 | 1005.2 |
| 20260506193040 | 68 | 196 | 2.0 | 4.0 | 0.00 | 0.00 | 0.00 | 48 | 1005.0 |
| 20260506192057 | 68 | 160 | 4.0 | 9.0 | 0.00 | 0.00 | 0.00 | 47 | 1004.8 |
| 20260506191020 | 69 | 165 | 2.0 | 4.0 | 0.00 | 0.00 | 0.00 | 46 | 1004.7 |
| 20260506190021 | 70 | 144 | 3.0 | 9.0 | 0.00 | 0.00 | 0.00 | 45 | 1004.5 |
| 20260506185017 | 70 | 173 | 2.0 | 3.0 | 0.00 | 0.00 | 0.00 | 44 | 1004.5 |
| 20260506184021 | 71 | 169 | 4.0 | 9.0 | 0.00 | 0.00 | 0.00 | 44 | 1004.4 |
| 20260506183021 | 71 | 177 | 4.0 | 11.0 | 0.00 | 0.00 | 0.00 | 44 | 1004.2 |
| 20260506182018 | 71 | 162 | 4.0 | 9.0 | 0.00 | 0.00 | 0.00 | 43 | 1004.0 |
| 20260506181020 | 72 | 172 | 5.0 | 11.0 | 0.00 | 0.00 | 0.00 | 43 | 1004.0 |
| 20260506180022 | 72 | 167 | 5.0 | 10.0 | 0.00 | 0.00 | 0.00 | 42 | 1003.9 |
| 20260506175018 | 73 | 172 | 6.0 | 13.0 | 0.00 | 0.00 | 0.00 | 41 | 1003.7 |